Time;durP1;ratioP1;P1;durP2;ratioP2;P2;SDS_P1;SDS_P2;PMS_P1;PMS_P2;Temp;Humidity;BMP_temperature;BMP_pressure;BME280_temperature;BME280_humidity;BME280_pressure;Samples;Min_cycle;Max_cycle;Signal;HPM_P1;HPM_P2
2021/03/11 00:00:32;;;;;;;32.87;17.03;;;;;;;;;;4389504;32;20162;-83
2021/03/11 00:02:58;;;;;;;35.27;17.47;;;;;;;;;;4389884;32;20166;-81
2021/03/11 00:05:24;;;;;;;27.97;16.30;;;;;;;;;;4389370;32;20483;-85
2021/03/11 00:07:50;;;;;;;30.43;16.13;;;;;;;;;;4389312;32;20458;-82
2021/03/11 00:10:15;;;;;;;34.40;18.57;;;;;;;;;;4389733;32;20185;-84
2021/03/11 00:12:46;;;;;;;29.47;16.87;;;;;;;;;;4389858;32;20155;-84
2021/03/11 00:15:13;;;;;;;27.33;14.77;;;;;;;;;;4389741;32;20162;-80
2021/03/11 00:17:38;;;;;;;29.83;16.50;;;;;;;;;;4389545;32;20174;-80
2021/03/11 00:20:08;;;;;;;29.33;15.93;;;;;;;;;;4390972;32;20200;-82
2021/03/11 00:22:33;;;;;;;27.73;15.43;;;;;;;;;;4390415;32;20196;-82
2021/03/11 00:25:00;;;;;;;32.57;16.43;;;;;;;;;;4389212;32;20166;-82
2021/03/11 00:27:25;;;;;;;26.90;15.30;;;;;;;;;;4389058;32;20582;-81
2021/03/11 00:29:50;;;;;;;27.07;15.20;;;;;;;;;;4389135;32;20162;-82
2021/03/11 00:32:16;;;;;;;35.20;18.53;;;;;;;;;;4390397;32;20135;-82
2021/03/11 00:34:41;;;;;;;33.83;17.83;;;;;;;;;;4390072;32;20525;-83
2021/03/11 00:37:06;;;;;;;28.97;16.07;;;;;;;;;;4390760;32;20146;-82
2021/03/11 00:39:31;;;;;;;28.63;15.03;;;;;;;;;;4388135;32;20233;-80
2021/03/11 00:41:56;;;;;;;35.73;16.90;;;;;;;;;;4388837;32;20170;-80
2021/03/11 00:44:22;;;;;;;36.07;19.57;;;;;;;;;;4390266;32;20694;-81
2021/03/11 00:46:47;;;;;;;35.13;17.77;;;;;;;;;;4376199;32;20154;-77
2021/03/11 00:49:13;;;;;;;38.03;17.87;;;;;;;;;;4389261;32;20166;-78
2021/03/11 00:51:39;;;;;;;33.70;16.17;;;;;;;;;;4388725;32;20158;-79
2021/03/11 00:54:05;;;;;;;38.90;19.50;;;;;;;;;;4390197;32;20203;-79
2021/03/11 00:56:30;;;;;;;43.80;22.43;;;;;;;;;;4388478;32;20525;-78
2021/03/11 00:58:58;;;;;;;39.47;19.87;;;;;;;;;;4388656;32;20166;-78
2021/03/11 01:01:23;;;;;;;43.50;20.80;;;;;;;;;;4388386;32;20166;-79
2021/03/11 01:03:48;;;;;;;40.87;20.23;;;;;;;;;;4388683;32;20204;-79
2021/03/11 01:06:14;;;;;;;42.03;21.10;;;;;;;;;;4388536;32;20166;-79
2021/03/11 01:08:39;;;;;;;41.53;21.07;;;;;;;;;;4389735;32;20135;-81
2021/03/11 01:11:04;;;;;;;36.10;19.00;;;;;;;;;;4390479;32;20181;-79
2021/03/11 01:13:29;;;;;;;38.50;19.87;;;;;;;;;;4388490;32;20158;-80
2021/03/11 01:15:55;;;;;;;42.93;21.27;;;;;;;;;;4388448;32;20166;-79
2021/03/11 01:18:20;;;;;;;42.80;20.07;;;;;;;;;;4390621;32;20544;-77
2021/03/11 01:20:45;;;;;;;36.50;17.97;;;;;;;;;;4388495;32;20229;-79
2021/03/11 01:23:10;;;;;;;41.63;20.67;;;;;;;;;;4389034;32;20178;-78
2021/03/11 01:25:36;;;;;;;39.23;20.00;;;;;;;;;;4390036;32;20154;-78
2021/03/11 01:28:01;;;;;;;39.87;21.30;;;;;;;;;;4388669;32;20601;-79
2021/03/11 01:30:26;;;;;;;41.33;21.37;;;;;;;;;;4388418;32;20162;-76
2021/03/11 01:32:51;;;;;;;40.30;20.33;;;;;;;;;;4389857;32;20196;-77
2021/03/11 01:35:17;;;;;;;39.40;21.40;;;;;;;;;;4389414;32;20130;-78
2021/03/11 01:37:42;;;;;;;37.10;20.60;;;;;;;;;;4390206;32;20213;-78
2021/03/11 01:40:10;;;;;;;42.27;21.03;;;;;;;;;;4388339;32;20197;-79
2021/03/11 01:42:35;;;;;;;43.27;21.83;;;;;;;;;;4390095;32;20483;-81
2021/03/11 01:45:01;;;;;;;37.87;19.17;;;;;;;;;;4388494;32;20185;-81
2021/03/11 01:47:26;;;;;;;39.13;21.10;;;;;;;;;;4388362;32;20201;-79
2021/03/11 01:49:51;;;;;;;40.23;22.27;;;;;;;;;;4388362;32;20198;-79
2021/03/11 01:52:17;;;;;;;37.10;20.47;;;;;;;;;;4389826;32;20198;-78
2021/03/11 01:54:42;;;;;;;35.60;19.70;;;;;;;;;;4389690;32;20181;-81
2021/03/11 01:57:08;;;;;;;36.20;18.03;;;;;;;;;;4388575;32;20205;-81
2021/03/11 01:59:34;;;;;;;39.63;21.40;;;;;;;;;;4388194;32;20158;-80
2021/03/11 02:01:59;;;;;;;35.20;19.60;;;;;;;;;;4389907;32;20188;-80
2021/03/11 02:04:27;;;;;;;41.77;22.43;;;;;;;;;;4388650;32;20224;-81
2021/03/11 02:06:53;;;;;;;36.00;18.93;;;;;;;;;;4389317;32;20139;-80
2021/03/11 02:09:21;;;;;;;36.20;18.77;;;;;;;;;;4389388;32;20131;-80
2021/03/11 02:12:07;;;;;;;33.07;18.23;;;;;;;;;;4390025;32;20158;-79
2021/03/11 02:14:46;;;;;;;38.17;18.80;;;;;;;;;;4375638;32;20205;-80
2021/03/11 02:17:14;;;;;;;38.70;20.13;;;;;;;;;;4379341;32;20688;-80
2021/03/11 02:20:08;;;;;;;38.83;21.53;;;;;;;;;;4391969;32;20180;-81
2021/03/11 02:22:36;;;;;;;37.07;20.27;;;;;;;;;;4392629;32;20157;-81
2021/03/11 02:25:24;;;;;;;36.20;19.97;;;;;;;;;;4392856;32;20162;-80
2021/03/11 02:27:57;;;;;;;36.63;19.70;;;;;;;;;;4392587;32;20138;-80
2021/03/11 02:30:23;;;;;;;35.53;19.77;;;;;;;;;;4390763;32;20202;-80
2021/03/11 02:32:51;;;;;;;36.50;19.43;;;;;;;;;;4390593;32;20162;-80
2021/03/11 02:35:17;;;;;;;36.43;21.37;;;;;;;;;;4390817;32;20652;-80
2021/03/11 02:37:48;;;;;;;33.90;18.80;;;;;;;;;;4390630;32;20170;-81
2021/03/11 02:40:15;;;;;;;30.60;18.00;;;;;;;;;;4390524;32;20238;-80
2021/03/11 02:42:42;;;;;;;35.50;19.53;;;;;;;;;;4390569;32;20166;-81
2021/03/11 02:45:08;;;;;;;33.13;18.73;;;;;;;;;;4390497;32;20197;-81
2021/03/11 02:47:35;;;;;;;30.93;18.43;;;;;;;;;;4390863;32;20591;-81
2021/03/11 02:50:00;;;;;;;34.33;17.17;;;;;;;;;;4390763;32;20257;-82
2021/03/11 02:52:27;;;;;;;31.93;18.00;;;;;;;;;;4390683;32;20598;-81
2021/03/11 02:54:54;;;;;;;33.23;19.27;;;;;;;;;;4390773;32;20513;-80
2021/03/11 02:57:20;;;;;;;32.33;17.33;;;;;;;;;;4405498;32;20185;-81
2021/03/11 02:59:49;;;;;;;32.23;17.47;;;;;;;;;;4393245;32;20188;-80
2021/03/11 03:02:15;;;;;;;25.83;14.10;;;;;;;;;;4392746;32;20614;-80
2021/03/11 03:04:43;;;;;;;33.97;17.90;;;;;;;;;;4392772;32;20162;-82
2021/03/11 03:07:15;;;;;;;27.37;16.02;;;;;;;;;;4392639;32;20529;-83
2021/03/11 03:09:42;;;;;;;31.57;17.57;;;;;;;;;;4407172;32;20138;-81
2021/03/11 03:12:09;;;;;;;34.67;18.87;;;;;;;;;;4393335;32;20517;-81
2021/03/11 03:14:36;;;;;;;31.93;18.57;;;;;;;;;;4393129;32;20184;-81
2021/03/11 03:17:01;;;;;;;30.30;16.67;;;;;;;;;;4406543;32;20219;-79
2021/03/11 03:19:28;;;;;;;31.97;16.77;;;;;;;;;;4392634;32;20599;-81
2021/03/11 03:21:54;;;;;;;29.50;15.77;;;;;;;;;;4392411;32;20165;-80
2021/03/11 03:24:20;;;;;;;31.80;17.17;;;;;;;;;;4392299;32;20212;-80
2021/03/11 03:26:45;;;;;;;32.37;17.37;;;;;;;;;;4392649;32;20162;-82
2021/03/11 03:29:10;;;;;;;32.40;17.83;;;;;;;;;;4392495;32;20266;-81
2021/03/11 03:31:36;;;;;;;31.13;16.80;;;;;;;;;;4392182;32;20158;-81
2021/03/11 03:34:01;;;;;;;28.43;16.37;;;;;;;;;;4392346;32;20161;-81
2021/03/11 03:36:26;;;;;;;25.33;15.53;;;;;;;;;;4392269;32;20157;-81
2021/03/11 03:38:53;;;;;;;24.97;14.03;;;;;;;;;;4392384;32;20623;-80
2021/03/11 03:41:19;;;;;;;24.40;14.33;;;;;;;;;;4406733;32;20146;-84
2021/03/11 03:43:45;;;;;;;24.03;13.20;;;;;;;;;;4392382;32;20245;-80
2021/03/11 03:46:14;;;;;;;26.97;14.27;;;;;;;;;;4380656;32;20184;-83
2021/03/11 03:48:42;;;;;;;22.40;13.20;;;;;;;;;;4392404;32;20173;-81
2021/03/11 03:51:08;;;;;;;25.70;11.88;;;;;;;;;;4392076;32;20169;-83
2021/03/11 03:53:49;;;;;;;21.20;13.20;;;;;;;;;;4380023;32;20185;-81
2021/03/11 03:56:19;;;;;;;19.67;11.98;;;;;;;;;;4405975;32;20503;-81
2021/03/11 03:58:46;;;;;;;19.43;11.67;;;;;;;;;;4391786;32;20166;-83
2021/03/11 04:01:12;;;;;;;19.00;11.03;;;;;;;;;;4391978;32;20208;-82
2021/03/11 04:03:37;;;;;;;20.33;10.95;;;;;;;;;;4391899;32;20161;-81
2021/03/11 04:06:03;;;;;;;17.93;11.03;;;;;;;;;;4392315;32;20513;-82
2021/03/11 04:08:28;;;;;;;18.57;10.37;;;;;;;;;;4391981;32;20181;-80
2021/03/11 04:10:54;;;;;;;18.12;10.60;;;;;;;;;;4392204;32;20158;-83
2021/03/11 04:13:20;;;;;;;20.23;10.88;;;;;;;;;;4391862;32;20473;-83
2021/03/11 04:15:47;;;;;;;18.50;10.60;;;;;;;;;;4392068;32;20162;-82
2021/03/11 04:18:13;;;;;;;14.77;8.93;;;;;;;;;;4392170;32;20169;-82
2021/03/11 04:20:46;;;;;;;13.93;9.07;;;;;;;;;;4391891;32;20214;-83
2021/03/11 04:23:12;;;;;;;15.55;9.52;;;;;;;;;;4392024;32;20150;-82
2021/03/11 04:25:37;;;;;;;13.97;8.00;;;;;;;;;;4391993;32;20158;-80
2021/03/11 04:28:02;;;;;;;17.30;10.43;;;;;;;;;;4391639;32;20589;-81
2021/03/11 04:30:28;;;;;;;17.05;10.32;;;;;;;;;;4391911;32;20165;-81
2021/03/11 04:32:54;;;;;;;16.73;9.27;;;;;;;;;;4405123;32;20201;-81
2021/03/11 04:35:19;;;;;;;17.80;9.73;;;;;;;;;;4405697;32;20180;-82
2021/03/11 04:37:46;;;;;;;16.95;9.98;;;;;;;;;;4391506;32;20193;-80
2021/03/11 04:40:11;;;;;;;17.70;10.45;;;;;;;;;;4391402;32;20162;-78
2021/03/11 04:42:37;;;;;;;19.55;9.80;;;;;;;;;;4391575;32;20527;-78
2021/03/11 04:45:03;;;;;;;18.17;9.77;;;;;;;;;;4391248;32;20163;-79
2021/03/11 04:47:29;;;;;;;18.87;9.70;;;;;;;;;;4391318;32;20607;-78
2021/03/11 04:50:07;;;;;;;20.00;10.75;;;;;;;;;;4391949;32;20159;-79
2021/03/11 04:52:39;;;;;;;18.20;11.25;;;;;;;;;;4406035;32;20259;-79
2021/03/11 04:55:05;;;;;;;18.93;11.67;;;;;;;;;;4405049;32;20138;-79
2021/03/11 04:57:30;;;;;;;19.90;10.77;;;;;;;;;;4391853;32;20583;-79
2021/03/11 04:59:57;;;;;;;24.80;11.87;;;;;;;;;;4405964;32;20130;-80
2021/03/11 05:02:25;;;;;;;20.83;10.65;;;;;;;;;;4391322;32;20251;-80
2021/03/11 05:04:54;;;;;;;23.95;11.57;;;;;;;;;;4391552;32;20276;-80
2021/03/11 05:07:19;;;;;;;23.98;12.07;;;;;;;;;;4391226;32;20166;-80
2021/03/11 05:09:45;;;;;;;24.60;10.90;;;;;;;;;;4391567;32;20204;-78
2021/03/11 05:12:10;;;;;;;22.90;12.23;;;;;;;;;;4404847;32;20150;-80
2021/03/11 05:14:35;;;;;;;22.10;10.13;;;;;;;;;;4391128;32;20170;-81
2021/03/11 05:17:01;;;;;;;24.10;11.80;;;;;;;;;;4404852;32;20180;-80
2021/03/11 05:19:26;;;;;;;19.35;9.98;;;;;;;;;;4391057;32;20162;-79
2021/03/11 05:21:51;;;;;;;20.30;10.32;;;;;;;;;;4391003;32;20198;-80
2021/03/11 05:24:17;;;;;;;16.80;10.25;;;;;;;;;;4391554;32;20215;-77
2021/03/11 05:26:42;;;;;;;24.10;11.32;;;;;;;;;;4391065;32;20260;-81
2021/03/11 05:29:07;;;;;;;18.03;9.87;;;;;;;;;;4392040;32;20192;-80
2021/03/11 05:31:32;;;;;;;21.83;11.38;;;;;;;;;;4390900;32;20158;-76
2021/03/11 05:33:57;;;;;;;17.30;9.73;;;;;;;;;;4391509;32;20169;-78
2021/03/11 05:36:25;;;;;;;16.85;9.20;;;;;;;;;;4391281;32;20162;-80
2021/03/11 05:38:50;;;;;;;18.13;9.43;;;;;;;;;;4391032;32;20213;-79
2021/03/11 05:41:16;;;;;;;17.13;10.37;;;;;;;;;;4403386;32;20536;-76
2021/03/11 05:43:42;;;;;;;18.25;9.65;;;;;;;;;;4391001;32;20170;-77
2021/03/11 05:46:09;;;;;;;19.40;9.48;;;;;;;;;;4391825;32;20271;-78
2021/03/11 05:48:35;;;;;;;17.08;9.32;;;;;;;;;;4393706;32;20231;-79
2021/03/11 05:51:04;;;;;;;16.05;7.90;;;;;;;;;;4393643;32;20197;-79
2021/03/11 05:53:30;;;;;;;16.10;9.82;;;;;;;;;;4407666;32;20130;-79
2021/03/11 05:55:55;;;;;;;18.20;9.98;;;;;;;;;;4393360;32;20220;-77
2021/03/11 05:58:21;;;;;;;18.58;10.13;;;;;;;;;;4406184;32;20193;-78
2021/03/11 06:00:46;;;;;;;14.18;7.72;;;;;;;;;;4407413;32;20571;-79
2021/03/11 06:03:14;;;;;;;18.45;7.82;;;;;;;;;;4407580;32;20216;-81
2021/03/11 06:05:40;;;;;;;15.57;8.18;;;;;;;;;;4407927;32;20448;-80
2021/03/11 06:08:10;;;;;;;17.42;7.47;;;;;;;;;;4393823;32;20166;-80
2021/03/11 06:10:36;;;;;;;20.08;8.18;;;;;;;;;;4393366;32;20603;-81
2021/03/11 06:13:04;;;;;;;12.00;5.78;;;;;;;;;;4393654;32;20188;-80
2021/03/11 06:15:39;;;;;;;16.73;7.80;;;;;;;;;;4393385;32;20655;-81
2021/03/11 06:18:06;;;;;;;13.50;6.35;;;;;;;;;;4393474;32;20168;-80
2021/03/11 06:20:31;;;;;;;10.02;5.03;;;;;;;;;;4393296;32;20165;-81
2021/03/11 06:22:57;;;;;;;15.60;5.03;;;;;;;;;;4393920;32;20517;-83
2021/03/11 06:25:22;;;;;;;14.18;6.15;;;;;;;;;;4393256;32;20197;-84
2021/03/11 06:27:47;;;;;;;9.50;5.47;;;;;;;;;;4393432;32;20182;-84
2021/03/11 06:30:33;;;;;;;14.73;6.15;;;;;;;;;;4393104;32;20292;-80
2021/03/11 06:33:00;;;;;;;10.77;5.12;;;;;;;;;;4392791;32;20682;-78
2021/03/11 06:35:28;;;;;;;11.45;5.00;;;;;;;;;;4407156;32;20191;-78
2021/03/11 06:37:53;;;;;;;10.73;4.60;;;;;;;;;;4393195;32;20166;-76
2021/03/11 06:40:25;;;;;;;12.50;5.12;;;;;;;;;;4393094;32;20162;-78
2021/03/11 06:43:18;;;;;;;9.57;4.07;;;;;;;;;;4392894;32;20184;-78
2021/03/11 06:45:43;;;;;;;12.95;3.80;;;;;;;;;;4392600;32;20617;-78
2021/03/11 06:48:25;;;;;;;14.38;4.05;;;;;;;;;;4406841;32;20134;-78
2021/03/11 06:50:59;;;;;;;11.75;3.25;;;;;;;;;;4392992;32;20231;-78
2021/03/11 06:53:25;;;;;;;15.20;4.15;;;;;;;;;;4393343;32;20499;-80
2021/03/11 06:55:50;;;;;;;13.68;3.80;;;;;;;;;;4393016;32;20174;-77
2021/03/11 06:58:17;;;;;;;16.73;3.40;;;;;;;;;;4405887;32;20328;-78
2021/03/11 07:00:45;;;;;;;18.83;3.45;;;;;;;;;;4406862;32;20220;-79
2021/03/11 07:03:11;;;;;;;14.15;2.72;;;;;;;;;;4383948;32;20205;-81
2021/03/11 07:05:37;;;;;;;18.48;3.45;;;;;;;;;;4377099;32;20588;-79
2021/03/11 07:08:02;;;;;;;21.08;3.17;;;;;;;;;;4377650;32;20247;-80
2021/03/11 07:10:28;;;;;;;16.77;3.65;;;;;;;;;;4377619;32;20170;-81
2021/03/11 07:12:56;;;;;;;25.40;4.37;;;;;;;;;;4387305;32;20209;-78
2021/03/11 07:15:22;;;;;;;26.40;5.12;;;;;;;;;;4377378;32;20220;-83
2021/03/11 07:17:49;;;;;;;18.20;4.28;;;;;;;;;;4376804;32;20165;-80
2021/03/11 07:20:21;;;;;;;22.50;3.58;;;;;;;;;;4377332;32;20167;-80
2021/03/11 07:23:05;;;;;;;16.85;3.60;;;;;;;;;;4384917;32;20245;-82
2021/03/11 07:25:31;;;;;;;20.30;3.62;;;;;;;;;;4394597;32;20150;-82
2021/03/11 07:27:57;;;;;;;23.40;3.85;;;;;;;;;;4392584;32;20162;-82
2021/03/11 07:30:24;;;;;;;28.77;4.53;;;;;;;;;;4388532;32;20249;-80
2021/03/11 07:32:55;;;;;;;25.92;5.03;;;;;;;;;;4385736;32;20589;-81
2021/03/11 07:35:20;;;;;;;28.80;4.95;;;;;;;;;;4378986;32;20166;-78
2021/03/11 07:37:47;;;;;;;21.00;3.87;;;;;;;;;;4375532;32;20174;-81
2021/03/11 07:40:12;;;;;;;28.90;4.05;;;;;;;;;;4381532;32;20309;-80
2021/03/11 07:42:39;;;;;;;25.48;4.15;;;;;;;;;;4376434;32;20158;-79
2021/03/11 07:45:05;;;;;;;26.27;4.22;;;;;;;;;;4377148;32;20243;-82
2021/03/11 07:47:30;;;;;;;24.15;4.05;;;;;;;;;;4376306;32;20166;-79
2021/03/11 07:49:56;;;;;;;28.75;4.87;;;;;;;;;;4376285;32;20189;-81
2021/03/11 07:52:21;;;;;;;25.88;4.18;;;;;;;;;;4386767;32;20236;-80
2021/03/11 07:54:46;;;;;;;30.12;4.45;;;;;;;;;;4388388;32;20162;-81
2021/03/11 07:57:12;;;;;;;18.27;3.12;;;;;;;;;;4390672;32;20225;-79
2021/03/11 07:59:51;;;;;;;20.55;3.78;;;;;;;;;;4393849;32;20166;-80
2021/03/11 08:02:19;;;;;;;24.80;4.60;;;;;;;;;;4389006;32;20181;-80
2021/03/11 08:04:47;;;;;;;24.02;3.87;;;;;;;;;;4388757;32;20162;-81
2021/03/11 08:07:28;;;;;;;26.35;4.15;;;;;;;;;;4389987;32;20258;-82
2021/03/11 08:09:55;;;;;;;33.88;4.72;;;;;;;;;;4388965;32;20158;-81
2021/03/11 08:12:26;;;;;;;25.35;4.28;;;;;;;;;;4388956;32;20185;-81
2021/03/11 08:14:51;;;;;;;20.60;4.37;;;;;;;;;;4391108;32;20253;-78
2021/03/11 08:17:37;;;;;;;24.25;3.72;;;;;;;;;;4389290;32;20590;-82
2021/03/11 08:20:25;;;;;;;30.17;5.10;;;;;;;;;;4389964;32;20662;-82
2021/03/11 08:22:51;;;;;;;28.85;4.78;;;;;;;;;;4380649;32;20228;-81
2021/03/11 08:25:31;;;;;;;21.42;4.10;;;;;;;;;;4395902;32;20209;-83
2021/03/11 08:27:57;;;;;;;25.95;4.60;;;;;;;;;;4405121;32;20142;-80
2021/03/11 08:30:41;;;;;;;29.15;4.90;;;;;;;;;;4390936;32;20240;-82
2021/03/11 08:33:06;;;;;;;19.05;3.75;;;;;;;;;;4389879;32;20170;-82
2021/03/11 08:35:35;;;;;;;24.65;4.32;;;;;;;;;;4383622;32;20162;-83
2021/03/11 08:38:00;;;;;;;23.27;4.90;;;;;;;;;;4404305;32;20208;-80
2021/03/11 08:40:36;;;;;;;22.52;3.62;;;;;;;;;;4392206;32;20623;-81
2021/03/11 08:43:01;;;;;;;26.98;4.32;;;;;;;;;;4390096;32;20203;-79
2021/03/11 08:45:55;;;;;;;26.87;4.95;;;;;;;;;;4399833;32;20499;-79
2021/03/11 08:48:40;;;;;;;20.52;4.43;;;;;;;;;;4391545;32;20169;-83
2021/03/11 08:51:08;;;;;;;16.17;3.50;;;;;;;;;;4406759;32;20150;-82
2021/03/11 08:53:36;;;;;;;28.05;4.50;;;;;;;;;;4404139;32;20215;-81
2021/03/11 08:56:21;;;;;;;19.67;3.83;;;;;;;;;;4405450;32;20599;-80
2021/03/11 08:58:53;;;;;;;31.02;4.90;;;;;;;;;;4412932;32;20165;-81
2021/03/11 09:01:28;;;;;;;27.65;4.93;;;;;;;;;;4396095;32;20228;-80
2021/03/11 09:03:53;;;;;;;32.08;5.22;;;;;;;;;;4384143;32;20181;-79
2021/03/11 09:06:20;;;;;;;22.95;4.35;;;;;;;;;;4404060;32;20157;-80
2021/03/11 09:08:47;;;;;;;24.83;5.87;;;;;;;;;;4390152;32;20196;-80
2021/03/11 09:11:14;;;;;;;30.67;4.65;;;;;;;;;;4390719;32;20280;-79
2021/03/11 09:13:40;;;;;;;34.45;5.20;;;;;;;;;;4390439;32;20165;-83
2021/03/11 09:16:05;;;;;;;27.35;5.32;;;;;;;;;;4390783;32;20170;-83
2021/03/11 09:18:34;;;;;;;19.52;3.50;;;;;;;;;;4389863;32;20521;-78
2021/03/11 09:20:59;;;;;;;20.33;4.50;;;;;;;;;;4390208;32;20578;-79
2021/03/11 09:23:35;;;;;;;26.42;5.47;;;;;;;;;;4404090;32;20538;-81
2021/03/11 09:26:00;;;;;;;28.73;5.03;;;;;;;;;;4390740;32;20227;-81
2021/03/11 09:28:25;;;;;;;22.60;3.80;;;;;;;;;;4404007;32;20142;-81
2021/03/11 09:30:51;;;;;;;24.87;4.75;;;;;;;;;;4403960;32;20228;-77
2021/03/11 09:33:22;;;;;;;27.62;4.47;;;;;;;;;;4390183;32;20169;-79
2021/03/11 09:35:48;;;;;;;31.70;5.37;;;;;;;;;;4404953;32;20137;-77
2021/03/11 09:38:21;;;;;;;16.50;3.75;;;;;;;;;;4390260;32;20595;-77
2021/03/11 09:40:58;;;;;;;18.70;4.10;;;;;;;;;;4387408;32;20193;-81
2021/03/11 09:43:30;;;;;;;23.92;4.18;;;;;;;;;;4375683;32;20216;-78
2021/03/11 09:46:06;;;;;;;25.75;5.00;;;;;;;;;;4375187;32;20185;-78
2021/03/11 09:48:42;;;;;;;22.60;3.95;;;;;;;;;;4375524;32;20154;-77
2021/03/11 09:51:07;;;;;;;27.75;4.25;;;;;;;;;;4387506;32;20165;-82
2021/03/11 09:53:34;;;;;;;27.27;5.10;;;;;;;;;;4397353;32;20166;-78
2021/03/11 09:55:59;;;;;;;23.20;4.03;;;;;;;;;;4390371;32;20236;-80
2021/03/11 09:58:24;;;;;;;33.25;5.78;;;;;;;;;;4404390;32;20146;-76
2021/03/11 10:00:53;;;;;;;29.27;5.37;;;;;;;;;;4402647;32;20193;-79
2021/03/11 10:03:31;;;;;;;30.23;5.93;;;;;;;;;;4403672;32;20630;-77
2021/03/11 10:05:58;;;;;;;33.88;6.35;;;;;;;;;;4403224;32;20193;-78
2021/03/11 10:08:30;;;;;;;26.35;4.07;;;;;;;;;;4405052;32;20244;-84
2021/03/11 10:11:08;;;;;;;23.55;3.97;;;;;;;;;;4404965;32;20168;-78
2021/03/11 10:13:33;;;;;;;23.27;4.25;;;;;;;;;;4390251;32;20209;-82
2021/03/11 10:15:59;;;;;;;25.58;4.47;;;;;;;;;;4404951;32;20134;-85
2021/03/11 10:18:24;;;;;;;29.67;4.53;;;;;;;;;;4390432;32;20269;-79
2021/03/11 10:21:06;;;;;;;25.48;4.47;;;;;;;;;;4404606;32;20126;-80
2021/03/11 10:23:32;;;;;;;33.47;5.55;;;;;;;;;;4390110;32;20216;-81
2021/03/11 10:26:33;;;;;;;23.48;4.87;;;;;;;;;;4403915;32;20138;-77
2021/03/11 10:29:05;;;;;;;36.63;5.97;;;;;;;;;;4371384;32;20224;-80
2021/03/11 10:31:34;;;;;;;29.20;5.18;;;;;;;;;;4389243;32;20142;-82
2021/03/11 10:34:04;;;;;;;27.75;4.93;;;;;;;;;;4390168;32;20229;-81
2021/03/11 10:36:35;;;;;;;29.02;4.95;;;;;;;;;;4384414;32;20267;-80
2021/03/11 10:39:04;;;;;;;33.13;5.30;;;;;;;;;;4393087;32;20583;-76
2021/03/11 10:41:29;;;;;;;30.50;5.10;;;;;;;;;;4401601;32;20169;-82
2021/03/11 10:44:12;;;;;;;23.90;4.70;;;;;;;;;;4405087;32;20162;-83
2021/03/11 10:46:41;;;;;;;32.17;4.70;;;;;;;;;;4405354;32;20153;-77
2021/03/11 10:49:06;;;;;;;24.87;5.03;;;;;;;;;;4404639;32;20166;-84
2021/03/11 10:51:32;;;;;;;34.10;4.80;;;;;;;;;;4405109;32;20746;-82
2021/03/11 10:54:01;;;;;;;27.27;4.82;;;;;;;;;;4391079;32;20505;-78
2021/03/11 10:56:26;;;;;;;27.20;5.18;;;;;;;;;;4404148;32;20158;-79
2021/03/11 10:59:02;;;;;;;29.02;4.90;;;;;;;;;;4406088;32;20197;-82
2021/03/11 11:01:28;;;;;;;33.38;5.53;;;;;;;;;;4401548;32;20192;-77
2021/03/11 11:03:54;;;;;;;24.25;4.50;;;;;;;;;;4404822;32;20150;-80
2021/03/11 11:06:20;;;;;;;33.15;4.85;;;;;;;;;;4403687;32;20169;-80
2021/03/11 11:08:45;;;;;;;24.17;4.55;;;;;;;;;;4406300;32;20130;-81
2021/03/11 11:11:11;;;;;;;28.90;4.62;;;;;;;;;;4406334;32;20485;-80
2021/03/11 11:13:37;;;;;;;24.63;4.68;;;;;;;;;;4391808;32;20197;-80
2021/03/11 11:16:02;;;;;;;28.58;5.03;;;;;;;;;;4404515;32;20185;-73
2021/03/11 11:18:27;;;;;;;18.35;4.32;;;;;;;;;;4400099;32;20162;-82
2021/03/11 11:20:52;;;;;;;32.17;5.70;;;;;;;;;;4404631;32;20197;-76
2021/03/11 11:23:18;;;;;;;25.90;4.85;;;;;;;;;;4406143;32;20138;-80
2021/03/11 11:25:43;;;;;;;32.80;5.93;;;;;;;;;;4391789;32;20162;-80
2021/03/11 11:28:09;;;;;;;36.13;6.30;;;;;;;;;;4391708;32;20158;-81
2021/03/11 11:30:34;;;;;;;32.50;5.20;;;;;;;;;;4406812;32;20181;-84
2021/03/11 11:32:59;;;;;;;40.95;5.97;;;;;;;;;;4391371;32;20173;-80
2021/03/11 11:35:25;;;;;;;39.05;6.07;;;;;;;;;;4405668;32;20201;-79
2021/03/11 11:37:53;;;;;;;30.33;5.40;;;;;;;;;;4391488;32;20238;-80
2021/03/11 11:40:20;;;;;;;36.72;6.55;;;;;;;;;;4391588;32;20173;-82
2021/03/11 11:42:48;;;;;;;33.75;5.93;;;;;;;;;;4392359;32;20170;-82
2021/03/11 11:45:14;;;;;;;34.53;6.37;;;;;;;;;;4405195;32;20209;-84
2021/03/11 11:47:39;;;;;;;29.15;5.45;;;;;;;;;;4391707;32;20187;-82
2021/03/11 11:50:06;;;;;;;37.70;6.80;;;;;;;;;;4405583;32;20158;-83
2021/03/11 11:52:32;;;;;;;34.40;5.47;;;;;;;;;;4391090;32;20237;-81
2021/03/11 11:55:07;;;;;;;31.98;5.35;;;;;;;;;;4393163;32;20170;-81
2021/03/11 11:57:51;;;;;;;33.78;6.07;;;;;;;;;;4395012;32;20228;-80
2021/03/11 12:00:29;;;;;;;40.25;5.90;;;;;;;;;;4361440;32;20159;-81
2021/03/11 12:02:54;;;;;;;27.55;5.28;;;;;;;;;;4361447;32;20166;-81
2021/03/11 12:05:19;;;;;;;29.83;5.53;;;;;;;;;;4361634;32;20270;-80
2021/03/11 12:07:56;;;;;;;43.28;6.28;;;;;;;;;;4363812;32;20487;-80
2021/03/11 12:13:55;;;;;;;34.78;5.87;;;;;;;;;;4314016;33;20171;-79
2021/03/11 12:19:06;;;;;;;38.63;6.37;;;;;;;;;;4313585;33;20152;-81
2021/03/11 12:21:40;;;;;;;23.65;4.60;;;;;;;;;;4313782;33;20190;-79
2021/03/11 12:24:05;;;;;;;27.25;4.82;;;;;;;;;;4322418;32;20155;-79
2021/03/11 12:26:33;;;;;;;30.90;5.28;;;;;;;;;;4376163;32;20276;-78
2021/03/11 12:29:00;;;;;;;29.50;4.97;;;;;;;;;;4394476;32;20548;-80
2021/03/11 12:31:28;;;;;;;35.58;5.55;;;;;;;;;;4390892;32;20208;-79
2021/03/11 12:33:53;;;;;;;27.73;5.37;;;;;;;;;;4390870;32;20711;-80
2021/03/11 12:36:31;;;;;;;27.40;5.53;;;;;;;;;;4391156;32;20162;-80
2021/03/11 12:38:57;;;;;;;32.03;5.25;;;;;;;;;;4374652;32;20172;-80
2021/03/11 12:41:29;;;;;;;32.13;6.47;;;;;;;;;;4368964;32;20163;-80
2021/03/11 12:44:03;;;;;;;36.80;6.53;;;;;;;;;;4374818;32;20180;-81
2021/03/11 12:46:36;;;;;;;40.33;6.00;;;;;;;;;;4373484;32;20163;-79
2021/03/11 12:49:14;;;;;;;;;;;;;;;;;;;;;
2021/03/11 12:51:53;;;;;;;;;;;;;;;;;;;;;
2021/03/11 12:54:19;;;;;;;28.65;6.10;;;;;;;;;;4371940;32;20192;-79
2021/03/11 12:57:03;;;;;;;29.63;5.37;;;;;;;;;;4361267;32;20199;-80
2021/03/11 12:59:28;;;;;;;27.70;4.47;;;;;;;;;;4389564;32;20158;-80
2021/03/11 13:01:54;;;;;;;30.90;4.53;;;;;;;;;;4387352;32;20194;-81
2021/03/11 13:04:19;;;;;;;37.92;6.43;;;;;;;;;;4389125;32;20198;-80
2021/03/11 13:06:44;;;;;;;29.58;4.93;;;;;;;;;;4395229;32;20660;-80
2021/03/11 13:09:10;;;;;;;29.17;5.03;;;;;;;;;;4403216;32;20193;-81
2021/03/11 13:14:21;;;;;;;31.05;5.35;;;;;;;;;;4398855;32;20552;-80
2021/03/11 13:16:55;;;;;;;29.80;4.97;;;;;;;;;;4403500;32;20181;-81
2021/03/11 13:19:31;;;;;;;26.37;4.50;;;;;;;;;;4403759;32;20195;-82
2021/03/11 13:22:15;;;;;;;;;;;;;;;;;;;;;
2021/03/11 13:24:44;;;;;;;27.95;4.55;;;;;;;;;;4389865;32;20147;-82
2021/03/11 13:27:28;;;;;;;23.65;4.05;;;;;;;;;;4389208;32;20148;-80
2021/03/11 13:30:15;;;;;;;19.83;3.22;;;;;;;;;;4389654;32;20161;-80
2021/03/11 13:33:00;;;;;;;15.68;2.55;;;;;;;;;;4404314;32;20158;-81
2021/03/11 13:35:26;;;;;;;12.07;2.55;;;;;;;;;;4390519;32;20158;-81
2021/03/11 13:38:06;;;;;;;13.98;2.30;;;;;;;;;;4399921;32;20224;-81
2021/03/11 13:40:31;;;;;;;11.70;3.00;;;;;;;;;;4388048;32;20193;-82
2021/03/11 13:43:01;;;;;;;9.60;1.98;;;;;;;;;;4387770;32;20158;-80
2021/03/11 13:45:26;;;;;;;11.02;2.00;;;;;;;;;;4389054;32;20131;-82
2021/03/11 13:47:51;;;;;;;5.87;1.25;;;;;;;;;;4388014;32;20196;-80
2021/03/11 13:50:17;;;;;;;8.93;1.37;;;;;;;;;;4389512;32;20157;-81
2021/03/11 13:52:42;;;;;;;16.70;3.20;;;;;;;;;;4400540;32;20201;-78
2021/03/11 13:55:18;;;;;;;;;;;;;;;;;;;;;
2021/03/11 13:58:04;;;;;;;23.10;4.57;;;;;;;;;;4386271;32;20488;-82
2021/03/11 14:00:52;;;;;;;26.70;4.35;;;;;;;;;;4368372;32;20175;-82
2021/03/11 14:03:22;;;;;;;31.10;4.78;;;;;;;;;;4371890;32;20181;-82
2021/03/11 14:05:48;;;;;;;31.85;5.47;;;;;;;;;;4390941;32;20221;-81
2021/03/11 14:08:21;;;;;;;35.42;5.82;;;;;;;;;;4392326;32;20471;-82
2021/03/11 14:11:14;;;;;;;37.72;5.85;;;;;;;;;;4407403;32;20126;-81
2021/03/11 14:13:40;;;;;;;27.65;4.95;;;;;;;;;;4393372;32;20184;-83
2021/03/11 14:16:06;;;;;;;35.90;5.28;;;;;;;;;;4392889;32;20166;-80
2021/03/11 14:18:34;;;;;;;29.73;4.30;;;;;;;;;;4392791;32;20579;-80
2021/03/11 14:21:07;;;;;;;33.97;5.05;;;;;;;;;;4407008;32;20196;-81
2021/03/11 14:23:32;;;;;;;24.42;4.32;;;;;;;;;;4393886;32;20354;-82
2021/03/11 14:26:00;;;;;;;18.02;3.70;;;;;;;;;;4406585;32;20167;-81
2021/03/11 14:28:25;;;;;;;23.35;4.32;;;;;;;;;;4406531;32;20173;-80
2021/03/11 14:36:27;;;;;;;24.77;4.57;;;;;;;;;;4406133;32;20173;-79
2021/03/11 14:39:07;;;;;;;29.05;4.65;;;;;;;;;;4405648;32;20197;-80
2021/03/11 14:41:34;;;;;;;23.73;4.12;;;;;;;;;;4402885;32;20622;-79
2021/03/11 14:43:59;;;;;;;24.35;4.35;;;;;;;;;;4406274;32;20180;-79
2021/03/11 14:46:24;;;;;;;26.98;4.45;;;;;;;;;;4406479;32;20134;-80
2021/03/11 14:48:49;;;;;;;18.83;3.87;;;;;;;;;;4406465;32;20175;-80
2021/03/11 14:51:23;;;;;;;22.67;3.22;;;;;;;;;;4392527;32;20178;-79